sensor_id;sensor_type;location;lat;lon;timestamp;P1;durP1;ratioP1;P2;durP2;ratioP2
16352;SDS011;8286;51.274;9.542;2023-11-19T00:02:12;2.07;;;1.70;;
16352;SDS011;8286;51.274;9.542;2023-11-19T00:04:39;1.97;;;1.83;;
16352;SDS011;8286;51.274;9.542;2023-11-19T00:07:07;3.70;;;1.67;;
16352;SDS011;8286;51.274;9.542;2023-11-19T00:09:35;1.73;;;1.63;;
16352;SDS011;8286;51.274;9.542;2023-11-19T00:12:02;1.63;;;1.53;;
16352;SDS011;8286;51.274;9.542;2023-11-19T00:14:29;2.60;;;1.77;;
16352;SDS011;8286;51.274;9.542;2023-11-19T00:16:56;2.00;;;1.90;;
16352;SDS011;8286;51.274;9.542;2023-11-19T00:19:22;2.03;;;1.87;;
16352;SDS011;8286;51.274;9.542;2023-11-19T00:21:49;2.43;;;1.90;;
16352;SDS011;8286;51.274;9.542;2023-11-19T00:24:17;2.40;;;1.73;;
16352;SDS011;8286;51.274;9.542;2023-11-19T00:26:43;2.20;;;2.00;;
16352;SDS011;8286;51.274;9.542;2023-11-19T00:29:10;2.30;;;2.10;;
16352;SDS011;8286;51.274;9.542;2023-11-19T00:31:38;2.60;;;2.40;;
16352;SDS011;8286;51.274;9.542;2023-11-19T00:34:05;2.23;;;2.03;;
16352;SDS011;8286;51.274;9.542;2023-11-19T00:36:31;2.30;;;2.20;;
16352;SDS011;8286;51.274;9.542;2023-11-19T00:38:58;2.70;;;2.50;;
16352;SDS011;8286;51.274;9.542;2023-11-19T00:41:26;2.60;;;2.43;;
16352;SDS011;8286;51.274;9.542;2023-11-19T00:43:52;2.77;;;2.57;;
16352;SDS011;8286;51.274;9.542;2023-11-19T00:46:19;2.67;;;2.47;;
16352;SDS011;8286;51.274;9.542;2023-11-19T00:48:45;2.33;;;2.23;;
16352;SDS011;8286;51.274;9.542;2023-11-19T00:51:12;1.87;;;1.77;;
16352;SDS011;8286;51.274;9.542;2023-11-19T00:53:39;2.17;;;2.07;;
16352;SDS011;8286;51.274;9.542;2023-11-19T00:56:06;2.27;;;2.17;;
16352;SDS011;8286;51.274;9.542;2023-11-19T00:58:34;2.13;;;1.93;;
16352;SDS011;8286;51.274;9.542;2023-11-19T01:01:02;1.93;;;1.83;;
16352;SDS011;8286;51.274;9.542;2023-11-19T01:03:30;1.83;;;1.73;;
16352;SDS011;8286;51.274;9.542;2023-11-19T01:05:58;1.90;;;1.80;;
16352;SDS011;8286;51.274;9.542;2023-11-19T01:08:24;2.20;;;2.10;;
16352;SDS011;8286;51.274;9.542;2023-11-19T01:10:51;2.30;;;1.87;;
16352;SDS011;8286;51.274;9.542;2023-11-19T01:13:18;3.23;;;1.70;;
16352;SDS011;8286;51.274;9.542;2023-11-19T01:15:46;4.07;;;1.97;;
16352;SDS011;8286;51.274;9.542;2023-11-19T01:18:13;2.10;;;2.00;;
16352;SDS011;8286;51.274;9.542;2023-11-19T01:20:39;1.80;;;1.70;;
16352;SDS011;8286;51.274;9.542;2023-11-19T01:23:06;1.90;;;1.80;;
16352;SDS011;8286;51.274;9.542;2023-11-19T01:25:32;2.10;;;2.00;;
16352;SDS011;8286;51.274;9.542;2023-11-19T01:28:00;2.00;;;1.90;;
16352;SDS011;8286;51.274;9.542;2023-11-19T01:30:27;2.03;;;1.93;;
16352;SDS011;8286;51.274;9.542;2023-11-19T01:32:55;1.97;;;1.87;;
16352;SDS011;8286;51.274;9.542;2023-11-19T01:35:22;2.30;;;2.10;;
16352;SDS011;8286;51.274;9.542;2023-11-19T01:37:49;2.10;;;2.00;;
16352;SDS011;8286;51.274;9.542;2023-11-19T01:40:19;2.83;;;2.27;;
16352;SDS011;8286;51.274;9.542;2023-11-19T01:42:47;2.63;;;2.40;;
16352;SDS011;8286;51.274;9.542;2023-11-19T01:45:22;2.83;;;2.53;;
16352;SDS011;8286;51.274;9.542;2023-11-19T01:47:55;2.50;;;2.30;;
16352;SDS011;8286;51.274;9.542;2023-11-19T01:50:22;2.30;;;2.20;;
16352;SDS011;8286;51.274;9.542;2023-11-19T01:52:49;3.47;;;3.17;;
16352;SDS011;8286;51.274;9.542;2023-11-19T01:55:16;2.97;;;2.67;;
16352;SDS011;8286;51.274;9.542;2023-11-19T01:57:43;3.07;;;2.87;;
16352;SDS011;8286;51.274;9.542;2023-11-19T02:00:10;4.10;;;3.40;;
16352;SDS011;8286;51.274;9.542;2023-11-19T02:02:37;5.07;;;3.53;;
16352;SDS011;8286;51.274;9.542;2023-11-19T02:05:06;3.50;;;3.20;;
16352;SDS011;8286;51.274;9.542;2023-11-19T02:07:32;4.13;;;3.73;;
16352;SDS011;8286;51.274;9.542;2023-11-19T02:09:59;5.07;;;3.20;;
16352;SDS011;8286;51.274;9.542;2023-11-19T02:12:27;4.33;;;3.63;;
16352;SDS011;8286;51.274;9.542;2023-11-19T02:14:54;4.73;;;4.13;;
16352;SDS011;8286;51.274;9.542;2023-11-19T02:17:26;4.87;;;3.73;;
16352;SDS011;8286;51.274;9.542;2023-11-19T02:19:53;6.60;;;4.67;;
16352;SDS011;8286;51.274;9.542;2023-11-19T02:22:21;4.23;;;3.30;;
16352;SDS011;8286;51.274;9.542;2023-11-19T02:24:48;5.47;;;3.90;;
16352;SDS011;8286;51.274;9.542;2023-11-19T02:27:21;5.43;;;4.00;;
16352;SDS011;8286;51.274;9.542;2023-11-19T02:29:53;6.07;;;4.27;;
16352;SDS011;8286;51.274;9.542;2023-11-19T02:32:19;5.80;;;4.93;;
16352;SDS011;8286;51.274;9.542;2023-11-19T02:34:46;6.17;;;4.70;;
16352;SDS011;8286;51.274;9.542;2023-11-19T02:37:13;6.47;;;4.90;;
16352;SDS011;8286;51.274;9.542;2023-11-19T02:39:40;5.37;;;4.27;;
16352;SDS011;8286;51.274;9.542;2023-11-19T02:42:06;6.83;;;4.77;;
16352;SDS011;8286;51.274;9.542;2023-11-19T02:44:33;5.07;;;4.30;;
16352;SDS011;8286;51.274;9.542;2023-11-19T02:47:01;5.80;;;4.27;;
16352;SDS011;8286;51.274;9.542;2023-11-19T02:49:28;5.37;;;4.50;;
16352;SDS011;8286;51.274;9.542;2023-11-19T02:51:55;5.13;;;4.00;;
16352;SDS011;8286;51.274;9.542;2023-11-19T02:54:21;3.57;;;3.23;;
16352;SDS011;8286;51.274;9.542;2023-11-19T02:56:52;5.70;;;3.73;;
16352;SDS011;8286;51.274;9.542;2023-11-19T02:59:24;4.77;;;4.03;;
16352;SDS011;8286;51.274;9.542;2023-11-19T03:01:53;4.30;;;3.80;;
16352;SDS011;8286;51.274;9.542;2023-11-19T03:04:21;4.67;;;3.90;;
16352;SDS011;8286;51.274;9.542;2023-11-19T03:06:48;5.00;;;4.50;;
16352;SDS011;8286;51.274;9.542;2023-11-19T03:09:15;5.90;;;4.33;;
16352;SDS011;8286;51.274;9.542;2023-11-19T03:11:41;4.77;;;3.90;;
16352;SDS011;8286;51.274;9.542;2023-11-19T03:14:08;4.60;;;3.93;;
16352;SDS011;8286;51.274;9.542;2023-11-19T03:16:34;5.60;;;4.30;;
16352;SDS011;8286;51.274;9.542;2023-11-19T03:19:01;5.30;;;4.10;;
16352;SDS011;8286;51.274;9.542;2023-11-19T03:21:30;4.90;;;4.40;;
16352;SDS011;8286;51.274;9.542;2023-11-19T03:23:57;5.47;;;4.43;;
16352;SDS011;8286;51.274;9.542;2023-11-19T03:26:25;6.07;;;4.07;;
16352;SDS011;8286;51.274;9.542;2023-11-19T03:28:51;3.67;;;3.30;;
16352;SDS011;8286;51.274;9.542;2023-11-19T03:31:18;4.80;;;3.80;;
16352;SDS011;8286;51.274;9.542;2023-11-19T03:33:45;5.53;;;3.50;;
16352;SDS011;8286;51.274;9.542;2023-11-19T03:36:11;3.17;;;2.80;;
16352;SDS011;8286;51.274;9.542;2023-11-19T03:38:40;3.23;;;2.77;;
16352;SDS011;8286;51.274;9.542;2023-11-19T03:41:10;3.50;;;2.80;;
16352;SDS011;8286;51.274;9.542;2023-11-19T03:43:37;2.67;;;2.47;;
16352;SDS011;8286;51.274;9.542;2023-11-19T03:46:04;2.80;;;2.57;;
16352;SDS011;8286;51.274;9.542;2023-11-19T03:48:31;3.30;;;3.00;;
16352;SDS011;8286;51.274;9.542;2023-11-19T03:50:57;3.43;;;3.13;;
16352;SDS011;8286;51.274;9.542;2023-11-19T03:53:24;3.50;;;3.20;;
16352;SDS011;8286;51.274;9.542;2023-11-19T03:55:52;6.03;;;4.40;;
16352;SDS011;8286;51.274;9.542;2023-11-19T03:58:18;6.10;;;4.60;;
16352;SDS011;8286;51.274;9.542;2023-11-19T04:00:45;6.57;;;4.73;;
16352;SDS011;8286;51.274;9.542;2023-11-19T04:03:11;7.73;;;5.20;;
16352;SDS011;8286;51.274;9.542;2023-11-19T04:05:38;7.13;;;5.07;;
16352;SDS011;8286;51.274;9.542;2023-11-19T04:08:04;7.57;;;5.60;;
16352;SDS011;8286;51.274;9.542;2023-11-19T04:10:31;11.30;;;5.43;;
16352;SDS011;8286;51.274;9.542;2023-11-19T04:12:59;6.47;;;4.90;;
16352;SDS011;8286;51.274;9.542;2023-11-19T04:15:26;7.77;;;4.67;;
16352;SDS011;8286;51.274;9.542;2023-11-19T04:17:52;7.30;;;4.90;;
16352;SDS011;8286;51.274;9.542;2023-11-19T04:20:19;6.90;;;4.80;;
16352;SDS011;8286;51.274;9.542;2023-11-19T04:22:45;7.30;;;5.03;;
16352;SDS011;8286;51.274;9.542;2023-11-19T04:25:12;6.83;;;3.90;;
16352;SDS011;8286;51.274;9.542;2023-11-19T04:27:40;5.03;;;3.67;;
16352;SDS011;8286;51.274;9.542;2023-11-19T04:30:08;5.13;;;4.20;;
16352;SDS011;8286;51.274;9.542;2023-11-19T04:32:36;5.77;;;4.60;;
16352;SDS011;8286;51.274;9.542;2023-11-19T04:35:02;5.17;;;4.00;;
16352;SDS011;8286;51.274;9.542;2023-11-19T04:37:29;5.20;;;4.17;;
16352;SDS011;8286;51.274;9.542;2023-11-19T04:39:55;5.03;;;4.17;;
16352;SDS011;8286;51.274;9.542;2023-11-19T04:42:22;6.17;;;3.97;;
16352;SDS011;8286;51.274;9.542;2023-11-19T04:44:49;4.27;;;3.87;;
16352;SDS011;8286;51.274;9.542;2023-11-19T04:47:17;6.30;;;3.80;;
16352;SDS011;8286;51.274;9.542;2023-11-19T04:49:43;4.93;;;3.77;;
16352;SDS011;8286;51.274;9.542;2023-11-19T04:52:10;4.43;;;3.93;;
16352;SDS011;8286;51.274;9.542;2023-11-19T04:54:40;5.00;;;3.50;;
16352;SDS011;8286;51.274;9.542;2023-11-19T04:57:07;4.43;;;3.97;;
16352;SDS011;8286;51.274;9.542;2023-11-19T04:59:34;4.30;;;3.80;;
16352;SDS011;8286;51.274;9.542;2023-11-19T05:02:01;4.03;;;3.60;;
16352;SDS011;8286;51.274;9.542;2023-11-19T05:04:30;5.00;;;4.40;;
16352;SDS011;8286;51.274;9.542;2023-11-19T05:06:56;6.27;;;4.10;;
16352;SDS011;8286;51.274;9.542;2023-11-19T05:09:23;7.07;;;4.57;;
16352;SDS011;8286;51.274;9.542;2023-11-19T05:11:50;5.67;;;4.33;;
16352;SDS011;8286;51.274;9.542;2023-11-19T05:14:16;9.43;;;4.60;;
16352;SDS011;8286;51.274;9.542;2023-11-19T05:16:43;4.73;;;3.97;;
16352;SDS011;8286;51.274;9.542;2023-11-19T05:19:10;5.47;;;4.47;;
16352;SDS011;8286;51.274;9.542;2023-11-19T05:21:38;4.90;;;4.40;;
16352;SDS011;8286;51.274;9.542;2023-11-19T05:24:05;9.00;;;4.30;;
16352;SDS011;8286;51.274;9.542;2023-11-19T05:26:31;5.03;;;3.87;;
16352;SDS011;8286;51.274;9.542;2023-11-19T05:28:58;5.83;;;3.83;;
16352;SDS011;8286;51.274;9.542;2023-11-19T05:31:25;4.30;;;3.90;;
16352;SDS011;8286;51.274;9.542;2023-11-19T05:33:51;7.00;;;4.37;;
16352;SDS011;8286;51.274;9.542;2023-11-19T05:36:18;5.73;;;4.47;;
16352;SDS011;8286;51.274;9.542;2023-11-19T05:38:46;4.60;;;4.00;;
16352;SDS011;8286;51.274;9.542;2023-11-19T05:41:12;4.90;;;4.13;;
16352;SDS011;8286;51.274;9.542;2023-11-19T05:43:39;4.80;;;3.90;;
16352;SDS011;8286;51.274;9.542;2023-11-19T05:46:06;5.73;;;4.80;;
16352;SDS011;8286;51.274;9.542;2023-11-19T05:48:34;4.83;;;4.03;;
16352;SDS011;8286;51.274;9.542;2023-11-19T05:51:00;6.00;;;4.20;;
16352;SDS011;8286;51.274;9.542;2023-11-19T05:53:28;5.77;;;3.90;;
16352;SDS011;8286;51.274;9.542;2023-11-19T05:55:55;5.57;;;4.40;;
16352;SDS011;8286;51.274;9.542;2023-11-19T05:58:23;5.57;;;4.07;;
16352;SDS011;8286;51.274;9.542;2023-11-19T06:00:51;4.63;;;3.90;;
16352;SDS011;8286;51.274;9.542;2023-11-19T06:03:18;4.97;;;4.07;;
16352;SDS011;8286;51.274;9.542;2023-11-19T06:05:46;8.00;;;4.10;;
16352;SDS011;8286;51.274;9.542;2023-11-19T06:08:13;5.37;;;4.20;;
16352;SDS011;8286;51.274;9.542;2023-11-19T06:10:40;6.27;;;4.27;;
16352;SDS011;8286;51.274;9.542;2023-11-19T06:13:08;6.27;;;4.20;;
16352;SDS011;8286;51.274;9.542;2023-11-19T06:15:36;5.63;;;3.97;;
16352;SDS011;8286;51.274;9.542;2023-11-19T06:18:03;8.60;;;4.27;;
16352;SDS011;8286;51.274;9.542;2023-11-19T06:20:30;6.07;;;4.40;;
16352;SDS011;8286;51.274;9.542;2023-11-19T06:22:57;4.93;;;4.23;;
16352;SDS011;8286;51.274;9.542;2023-11-19T06:25:23;5.30;;;3.90;;
16352;SDS011;8286;51.274;9.542;2023-11-19T06:27:50;6.87;;;4.30;;
16352;SDS011;8286;51.274;9.542;2023-11-19T06:30:18;6.07;;;4.23;;
16352;SDS011;8286;51.274;9.542;2023-11-19T06:32:45;8.87;;;5.27;;
16352;SDS011;8286;51.274;9.542;2023-11-19T06:35:12;7.77;;;4.67;;
16352;SDS011;8286;51.274;9.542;2023-11-19T06:37:39;8.20;;;5.47;;
16352;SDS011;8286;51.274;9.542;2023-11-19T06:40:07;6.87;;;5.47;;
16352;SDS011;8286;51.274;9.542;2023-11-19T06:42:34;7.23;;;5.27;;
16352;SDS011;8286;51.274;9.542;2023-11-19T06:45:01;7.27;;;5.50;;
16352;SDS011;8286;51.274;9.542;2023-11-19T06:47:29;9.53;;;5.00;;
16352;SDS011;8286;51.274;9.542;2023-11-19T06:49:56;7.57;;;4.77;;
16352;SDS011;8286;51.274;9.542;2023-11-19T06:52:22;6.57;;;4.57;;
16352;SDS011;8286;51.274;9.542;2023-11-19T06:54:49;7.17;;;4.80;;
16352;SDS011;8286;51.274;9.542;2023-11-19T06:57:15;7.30;;;4.70;;
16352;SDS011;8286;51.274;9.542;2023-11-19T06:59:42;6.83;;;4.30;;
16352;SDS011;8286;51.274;9.542;2023-11-19T07:02:09;9.43;;;4.53;;
16352;SDS011;8286;51.274;9.542;2023-11-19T07:04:36;4.37;;;3.93;;
16352;SDS011;8286;51.274;9.542;2023-11-19T07:07:03;5.80;;;4.27;;
16352;SDS011;8286;51.274;9.542;2023-11-19T07:09:30;6.03;;;4.50;;
16352;SDS011;8286;51.274;9.542;2023-11-19T07:11:57;5.80;;;4.37;;
16352;SDS011;8286;51.274;9.542;2023-11-19T07:14:25;7.70;;;3.97;;
16352;SDS011;8286;51.274;9.542;2023-11-19T07:16:51;4.73;;;3.50;;
16352;SDS011;8286;51.274;9.542;2023-11-19T07:19:18;5.10;;;3.20;;
16352;SDS011;8286;51.274;9.542;2023-11-19T07:21:46;6.90;;;3.77;;
16352;SDS011;8286;51.274;9.542;2023-11-19T07:24:13;3.97;;;3.57;;
16352;SDS011;8286;51.274;9.542;2023-11-19T07:26:41;6.93;;;3.40;;
16352;SDS011;8286;51.274;9.542;2023-11-19T07:29:08;5.03;;;3.43;;
16352;SDS011;8286;51.274;9.542;2023-11-19T07:31:35;6.60;;;3.63;;
16352;SDS011;8286;51.274;9.542;2023-11-19T07:34:02;6.40;;;2.97;;
16352;SDS011;8286;51.274;9.542;2023-11-19T07:36:28;3.03;;;2.80;;
16352;SDS011;8286;51.274;9.542;2023-11-19T07:38:57;5.93;;;3.40;;
16352;SDS011;8286;51.274;9.542;2023-11-19T07:41:24;5.90;;;3.07;;
16352;SDS011;8286;51.274;9.542;2023-11-19T07:43:51;4.87;;;2.83;;
16352;SDS011;8286;51.274;9.542;2023-11-19T07:46:18;5.27;;;2.80;;
16352;SDS011;8286;51.274;9.542;2023-11-19T07:48:45;6.07;;;3.13;;
16352;SDS011;8286;51.274;9.542;2023-11-19T07:51:12;4.13;;;2.90;;
16352;SDS011;8286;51.274;9.542;2023-11-19T07:53:39;3.20;;;2.63;;
16352;SDS011;8286;51.274;9.542;2023-11-19T07:56:08;6.10;;;2.70;;
16352;SDS011;8286;51.274;9.542;2023-11-19T07:58:35;3.63;;;2.60;;
16352;SDS011;8286;51.274;9.542;2023-11-19T08:01:02;3.70;;;2.10;;
16352;SDS011;8286;51.274;9.542;2023-11-19T08:03:28;4.93;;;2.67;;
16352;SDS011;8286;51.274;9.542;2023-11-19T08:05:55;2.77;;;2.50;;
16352;SDS011;8286;51.274;9.542;2023-11-19T08:08:22;4.80;;;2.10;;
16352;SDS011;8286;51.274;9.542;2023-11-19T08:10:48;2.30;;;2.10;;
16352;SDS011;8286;51.274;9.542;2023-11-19T08:13:17;3.60;;;2.20;;
16352;SDS011;8286;51.274;9.542;2023-11-19T08:15:44;3.43;;;1.80;;
16352;SDS011;8286;51.274;9.542;2023-11-19T08:18:12;4.90;;;2.23;;
16352;SDS011;8286;51.274;9.542;2023-11-19T08:20:38;4.07;;;1.70;;
16352;SDS011;8286;51.274;9.542;2023-11-19T08:23:06;5.00;;;1.90;;
16352;SDS011;8286;51.274;9.542;2023-11-19T08:25:33;5.27;;;2.03;;
16352;SDS011;8286;51.274;9.542;2023-11-19T08:28:00;3.30;;;1.80;;
16352;SDS011;8286;51.274;9.542;2023-11-19T08:30:27;6.67;;;2.00;;
16352;SDS011;8286;51.274;9.542;2023-11-19T08:32:54;7.47;;;1.93;;
16352;SDS011;8286;51.274;9.542;2023-11-19T08:35:21;3.17;;;1.93;;
16352;SDS011;8286;51.274;9.542;2023-11-19T08:37:48;7.97;;;2.07;;
16352;SDS011;8286;51.274;9.542;2023-11-19T08:40:15;6.90;;;1.90;;
16352;SDS011;8286;51.274;9.542;2023-11-19T08:42:42;11.33;;;2.60;;
16352;SDS011;8286;51.274;9.542;2023-11-19T08:45:09;4.77;;;2.20;;
16352;SDS011;8286;51.274;9.542;2023-11-19T08:47:37;4.97;;;1.57;;
16352;SDS011;8286;51.274;9.542;2023-11-19T08:50:05;4.37;;;1.43;;
16352;SDS011;8286;51.274;9.542;2023-11-19T08:52:33;7.47;;;2.10;;
16352;SDS011;8286;51.274;9.542;2023-11-19T08:54:59;5.30;;;1.73;;
16352;SDS011;8286;51.274;9.542;2023-11-19T08:57:26;7.17;;;1.77;;
16352;SDS011;8286;51.274;9.542;2023-11-19T08:59:52;2.33;;;1.70;;
16352;SDS011;8286;51.274;9.542;2023-11-19T09:02:19;7.93;;;1.97;;
16352;SDS011;8286;51.274;9.542;2023-11-19T09:04:47;8.37;;;3.10;;
16352;SDS011;8286;51.274;9.542;2023-11-19T09:07:13;7.30;;;2.10;;
16352;SDS011;8286;51.274;9.542;2023-11-19T09:09:40;4.23;;;2.17;;
16352;SDS011;8286;51.274;9.542;2023-11-19T09:12:06;11.20;;;2.40;;
16352;SDS011;8286;51.274;9.542;2023-11-19T09:14:33;9.00;;;2.27;;
16352;SDS011;8286;51.274;9.542;2023-11-19T09:17:00;11.57;;;2.57;;
16352;SDS011;8286;51.274;9.542;2023-11-19T09:19:26;8.53;;;2.30;;
16352;SDS011;8286;51.274;9.542;2023-11-19T09:21:54;7.60;;;2.43;;
16352;SDS011;8286;51.274;9.542;2023-11-19T09:24:20;9.73;;;2.47;;
16352;SDS011;8286;51.274;9.542;2023-11-19T09:26:47;7.77;;;2.73;;
16352;SDS011;8286;51.274;9.542;2023-11-19T09:29:13;13.40;;;3.10;;
16352;SDS011;8286;51.274;9.542;2023-11-19T09:31:40;9.37;;;2.07;;
16352;SDS011;8286;51.274;9.542;2023-11-19T09:34:07;12.13;;;2.13;;
16352;SDS011;8286;51.274;9.542;2023-11-19T09:36:33;11.77;;;2.33;;
16352;SDS011;8286;51.274;9.542;2023-11-19T09:39:01;9.53;;;2.37;;
16352;SDS011;8286;51.274;9.542;2023-11-19T09:41:29;14.33;;;2.77;;
16352;SDS011;8286;51.274;9.542;2023-11-19T09:43:57;10.33;;;2.30;;
16352;SDS011;8286;51.274;9.542;2023-11-19T09:46:23;12.40;;;2.07;;
16352;SDS011;8286;51.274;9.542;2023-11-19T09:48:51;9.63;;;2.40;;
16352;SDS011;8286;51.274;9.542;2023-11-19T09:51:20;12.33;;;2.27;;
16352;SDS011;8286;51.274;9.542;2023-11-19T09:53:46;15.43;;;2.00;;
16352;SDS011;8286;51.274;9.542;2023-11-19T09:56:14;8.30;;;2.10;;
16352;SDS011;8286;51.274;9.542;2023-11-19T09:58:42;9.30;;;2.13;;
16352;SDS011;8286;51.274;9.542;2023-11-19T10:01:08;11.27;;;2.67;;
16352;SDS011;8286;51.274;9.542;2023-11-19T10:03:38;8.27;;;2.40;;
16352;SDS011;8286;51.274;9.542;2023-11-19T10:06:06;6.93;;;2.90;;
16352;SDS011;8286;51.274;9.542;2023-11-19T10:08:33;14.17;;;2.73;;
16352;SDS011;8286;51.274;9.542;2023-11-19T10:11:00;11.90;;;2.60;;
16352;SDS011;8286;51.274;9.542;2023-11-19T10:13:28;11.53;;;2.87;;
16352;SDS011;8286;51.274;9.542;2023-11-19T10:15:55;11.37;;;2.73;;
16352;SDS011;8286;51.274;9.542;2023-11-19T10:18:23;13.17;;;2.83;;
16352;SDS011;8286;51.274;9.542;2023-11-19T10:20:50;14.10;;;2.87;;
16352;SDS011;8286;51.274;9.542;2023-11-19T10:23:17;9.17;;;2.27;;
16352;SDS011;8286;51.274;9.542;2023-11-19T10:25:44;9.13;;;2.27;;
16352;SDS011;8286;51.274;9.542;2023-11-19T10:28:11;19.30;;;2.80;;
16352;SDS011;8286;51.274;9.542;2023-11-19T10:30:39;12.93;;;2.57;;
16352;SDS011;8286;51.274;9.542;2023-11-19T10:33:08;6.43;;;2.30;;
16352;SDS011;8286;51.274;9.542;2023-11-19T10:35:35;9.77;;;2.67;;
16352;SDS011;8286;51.274;9.542;2023-11-19T10:38:04;9.80;;;2.23;;
16352;SDS011;8286;51.274;9.542;2023-11-19T10:40:39;15.00;;;3.27;;
16352;SDS011;8286;51.274;9.542;2023-11-19T10:43:06;13.20;;;2.43;;
16352;SDS011;8286;51.274;9.542;2023-11-19T10:45:33;13.70;;;2.03;;
16352;SDS011;8286;51.274;9.542;2023-11-19T10:48:01;5.40;;;2.00;;
16352;SDS011;8286;51.274;9.542;2023-11-19T10:50:29;11.93;;;2.70;;
16352;SDS011;8286;51.274;9.542;2023-11-19T10:52:56;8.70;;;2.00;;
16352;SDS011;8286;51.274;9.542;2023-11-19T10:55:26;12.17;;;2.90;;
16352;SDS011;8286;51.274;9.542;2023-11-19T10:57:55;13.27;;;2.70;;
16352;SDS011;8286;51.274;9.542;2023-11-19T11:00:24;7.47;;;2.13;;
16352;SDS011;8286;51.274;9.542;2023-11-19T11:02:54;14.60;;;2.77;;
16352;SDS011;8286;51.274;9.542;2023-11-19T11:05:23;9.40;;;1.80;;
16352;SDS011;8286;51.274;9.542;2023-11-19T11:07:51;9.20;;;2.13;;
16352;SDS011;8286;51.274;9.542;2023-11-19T11:10:18;9.83;;;2.07;;
16352;SDS011;8286;51.274;9.542;2023-11-19T11:12:47;7.33;;;1.80;;
16352;SDS011;8286;51.274;9.542;2023-11-19T11:15:15;7.93;;;2.47;;
16352;SDS011;8286;51.274;9.542;2023-11-19T11:17:44;13.43;;;2.53;;
16352;SDS011;8286;51.274;9.542;2023-11-19T11:20:12;14.43;;;3.17;;
16352;SDS011;8286;51.274;9.542;2023-11-19T11:22:42;6.97;;;2.80;;
16352;SDS011;8286;51.274;9.542;2023-11-19T11:25:19;5.60;;;2.67;;
16352;SDS011;8286;51.274;9.542;2023-11-19T11:30:43;11.97;;;2.43;;
16352;SDS011;8286;51.274;9.542;2023-11-19T11:33:21;13.17;;;2.37;;
16352;SDS011;8286;51.274;9.542;2023-11-19T11:35:59;9.90;;;2.30;;
16352;SDS011;8286;51.274;9.542;2023-11-19T11:38:36;17.40;;;3.00;;
16352;SDS011;8286;51.274;9.542;2023-11-19T11:41:17;10.93;;;2.83;;
16352;SDS011;8286;51.274;9.542;2023-11-19T11:43:47;14.90;;;2.47;;
16352;SDS011;8286;51.274;9.542;2023-11-19T11:49:24;12.60;;;2.37;;
16352;SDS011;8286;51.274;9.542;2023-11-19T11:52:01;9.27;;;2.23;;
16352;SDS011;8286;51.274;9.542;2023-11-19T11:54:30;12.27;;;2.97;;
16352;SDS011;8286;51.274;9.542;2023-11-19T11:57:01;13.57;;;2.80;;
16352;SDS011;8286;51.274;9.542;2023-11-19T11:59:31;17.13;;;3.43;;
16352;SDS011;8286;51.274;9.542;2023-11-19T12:02:03;12.17;;;3.07;;
16352;SDS011;8286;51.274;9.542;2023-11-19T12:04:29;16.73;;;3.23;;
16352;SDS011;8286;51.274;9.542;2023-11-19T12:07:02;10.70;;;3.03;;
16352;SDS011;8286;51.274;9.542;2023-11-19T12:09:32;13.37;;;2.83;;
16352;SDS011;8286;51.274;9.542;2023-11-19T12:15:03;14.10;;;3.63;;
16352;SDS011;8286;51.274;9.542;2023-11-19T12:17:42;10.03;;;2.50;;
16352;SDS011;8286;51.274;9.542;2023-11-19T12:20:14;11.97;;;1.87;;
16352;SDS011;8286;51.274;9.542;2023-11-19T12:22:42;10.90;;;2.27;;
16352;SDS011;8286;51.274;9.542;2023-11-19T12:25:11;11.57;;;2.70;;
16352;SDS011;8286;51.274;9.542;2023-11-19T12:27:39;13.20;;;3.73;;
16352;SDS011;8286;51.274;9.542;2023-11-19T12:30:06;10.13;;;2.17;;
16352;SDS011;8286;51.274;9.542;2023-11-19T12:32:40;14.37;;;2.73;;
16352;SDS011;8286;51.274;9.542;2023-11-19T12:35:07;13.97;;;3.13;;
16352;SDS011;8286;51.274;9.542;2023-11-19T12:37:46;12.07;;;3.53;;
16352;SDS011;8286;51.274;9.542;2023-11-19T12:40:18;10.40;;;2.30;;
16352;SDS011;8286;51.274;9.542;2023-11-19T12:42:45;14.03;;;2.63;;
16352;SDS011;8286;51.274;9.542;2023-11-19T12:45:11;13.20;;;3.47;;
16352;SDS011;8286;51.274;9.542;2023-11-19T12:47:38;12.10;;;2.47;;
16352;SDS011;8286;51.274;9.542;2023-11-19T12:50:05;12.67;;;2.67;;
16352;SDS011;8286;51.274;9.542;2023-11-19T12:52:33;13.43;;;3.20;;
16352;SDS011;8286;51.274;9.542;2023-11-19T12:54:59;10.87;;;2.57;;
16352;SDS011;8286;51.274;9.542;2023-11-19T12:57:38;13.17;;;3.00;;
16352;SDS011;8286;51.274;9.542;2023-11-19T13:00:05;8.80;;;2.70;;
16352;SDS011;8286;51.274;9.542;2023-11-19T13:02:45;13.30;;;2.17;;
16352;SDS011;8286;51.274;9.542;2023-11-19T13:05:25;13.90;;;2.73;;
16352;SDS011;8286;51.274;9.542;2023-11-19T13:07:59;20.40;;;2.60;;
16352;SDS011;8286;51.274;9.542;2023-11-19T13:10:30;8.37;;;2.10;;
16352;SDS011;8286;51.274;9.542;2023-11-19T13:13:02;8.00;;;2.33;;
16352;SDS011;8286;51.274;9.542;2023-11-19T13:15:30;11.23;;;2.57;;
16352;SDS011;8286;51.274;9.542;2023-11-19T13:17:57;12.37;;;2.50;;
16352;SDS011;8286;51.274;9.542;2023-11-19T13:20:23;12.23;;;2.50;;
16352;SDS011;8286;51.274;9.542;2023-11-19T13:22:56;10.40;;;2.53;;
16352;SDS011;8286;51.274;9.542;2023-11-19T13:25:23;6.07;;;2.20;;
16352;SDS011;8286;51.274;9.542;2023-11-19T13:27:50;6.57;;;2.17;;
16352;SDS011;8286;51.274;9.542;2023-11-19T13:30:18;9.30;;;2.50;;
16352;SDS011;8286;51.274;9.542;2023-11-19T13:32:44;11.10;;;2.33;;
16352;SDS011;8286;51.274;9.542;2023-11-19T13:35:11;11.20;;;2.67;;
16352;SDS011;8286;51.274;9.542;2023-11-19T13:37:38;18.47;;;3.00;;
16352;SDS011;8286;51.274;9.542;2023-11-19T13:40:06;9.10;;;2.20;;
16352;SDS011;8286;51.274;9.542;2023-11-19T13:42:34;13.90;;;2.40;;
16352;SDS011;8286;51.274;9.542;2023-11-19T13:45:02;13.90;;;2.37;;
16352;SDS011;8286;51.274;9.542;2023-11-19T13:47:30;9.80;;;3.63;;
16352;SDS011;8286;51.274;9.542;2023-11-19T13:49:56;13.97;;;2.93;;
16352;SDS011;8286;51.274;9.542;2023-11-19T13:52:23;8.97;;;2.20;;
16352;SDS011;8286;51.274;9.542;2023-11-19T13:54:50;14.00;;;3.53;;
16352;SDS011;8286;51.274;9.542;2023-11-19T13:57:16;9.60;;;2.40;;
16352;SDS011;8286;51.274;9.542;2023-11-19T13:59:43;13.73;;;3.43;;
16352;SDS011;8286;51.274;9.542;2023-11-19T14:02:10;12.90;;;2.47;;
16352;SDS011;8286;51.274;9.542;2023-11-19T14:04:38;15.07;;;2.50;;
16352;SDS011;8286;51.274;9.542;2023-11-19T14:07:04;11.93;;;2.83;;
16352;SDS011;8286;51.274;9.542;2023-11-19T14:09:31;8.63;;;2.23;;
16352;SDS011;8286;51.274;9.542;2023-11-19T14:11:58;8.37;;;1.97;;
16352;SDS011;8286;51.274;9.542;2023-11-19T14:14:24;9.67;;;2.73;;
16352;SDS011;8286;51.274;9.542;2023-11-19T14:16:51;13.00;;;2.60;;
16352;SDS011;8286;51.274;9.542;2023-11-19T14:19:17;11.17;;;2.50;;
16352;SDS011;8286;51.274;9.542;2023-11-19T14:21:45;8.77;;;2.80;;
16352;SDS011;8286;51.274;9.542;2023-11-19T14:24:12;8.87;;;2.50;;
16352;SDS011;8286;51.274;9.542;2023-11-19T14:26:39;9.97;;;3.43;;
16352;SDS011;8286;51.274;9.542;2023-11-19T14:29:05;9.97;;;2.60;;
16352;SDS011;8286;51.274;9.542;2023-11-19T14:31:32;6.70;;;2.50;;
16352;SDS011;8286;51.274;9.542;2023-11-19T14:33:58;10.50;;;2.90;;
16352;SDS011;8286;51.274;9.542;2023-11-19T14:36:26;18.03;;;2.90;;
16352;SDS011;8286;51.274;9.542;2023-11-19T14:38:54;10.07;;;3.57;;
16352;SDS011;8286;51.274;9.542;2023-11-19T14:41:20;12.17;;;3.93;;
16352;SDS011;8286;51.274;9.542;2023-11-19T14:43:47;9.57;;;2.70;;
16352;SDS011;8286;51.274;9.542;2023-11-19T14:46:13;12.50;;;2.73;;
16352;SDS011;8286;51.274;9.542;2023-11-19T14:48:40;11.97;;;2.33;;
16352;SDS011;8286;51.274;9.542;2023-11-19T14:51:06;11.93;;;3.10;;
16352;SDS011;8286;51.274;9.542;2023-11-19T14:53:33;14.80;;;3.17;;
16352;SDS011;8286;51.274;9.542;2023-11-19T14:56:01;13.70;;;2.43;;
16352;SDS011;8286;51.274;9.542;2023-11-19T14:58:29;6.17;;;1.97;;
16352;SDS011;8286;51.274;9.542;2023-11-19T15:00:56;10.13;;;3.00;;
16352;SDS011;8286;51.274;9.542;2023-11-19T15:03:23;5.67;;;1.77;;
16352;SDS011;8286;51.274;9.542;2023-11-19T15:05:49;15.37;;;2.80;;
16352;SDS011;8286;51.274;9.542;2023-11-19T15:08:16;9.00;;;2.57;;
16352;SDS011;8286;51.274;9.542;2023-11-19T15:10:42;9.50;;;2.43;;